createdAt,value
2023-02-23T00:02:15.072Z,10.13
2023-02-23T00:05:18.210Z,9.85
2023-02-23T00:08:20.728Z,7.38
2023-02-23T00:11:23.858Z,9.80
2023-02-23T00:14:27.888Z,9.52
2023-02-23T00:17:31.628Z,10.23
2023-02-23T00:20:34.684Z,9.20
2023-02-23T00:23:38.860Z,9.68
2023-02-23T00:26:45.553Z,9.02
2023-02-23T00:29:49.900Z,9.40
2023-02-23T00:32:52.618Z,9.15
2023-02-23T00:35:55.665Z,8.77
2023-02-23T00:39:00.628Z,8.70
2023-02-23T00:42:03.315Z,8.50
2023-02-23T00:45:11.107Z,7.88
2023-02-23T00:48:13.537Z,9.40
2023-02-23T00:51:17.647Z,9.02
2023-02-23T00:54:22.197Z,9.35
2023-02-23T00:57:24.560Z,9.60
2023-02-23T01:00:26.897Z,9.40
2023-02-23T01:03:30.925Z,9.27
2023-02-23T01:06:33.445Z,7.28
2023-02-23T01:09:35.828Z,9.60
2023-02-23T01:12:40.080Z,9.43
2023-02-23T01:15:43.882Z,9.38
2023-02-23T01:21:49.005Z,8.43
2023-02-23T01:24:52.998Z,8.70
2023-02-23T01:27:55.937Z,9.77
2023-02-23T01:30:58.328Z,8.80
2023-02-23T01:34:02.126Z,9.20
2023-02-23T01:37:06.094Z,9.50
2023-02-23T01:40:28.788Z,8.90
2023-02-23T01:43:31.289Z,10.93
2023-02-23T01:46:41.707Z,11.52
2023-02-23T01:49:44.089Z,10.23
2023-02-23T01:52:48.352Z,9.30
2023-02-23T01:55:55.170Z,9.23
2023-02-23T01:59:00.334Z,9.52
2023-02-23T02:02:05.508Z,9.13
2023-02-23T02:05:13.738Z,10.23
2023-02-23T02:08:16.601Z,9.13
2023-02-23T02:11:36.404Z,7.93
2023-02-23T02:14:39.150Z,9.30
2023-02-23T02:18:09.680Z,9.18
2023-02-23T02:21:31.827Z,9.60
2023-02-23T02:24:52.598Z,10.27
2023-02-23T02:28:22.360Z,9.93
2023-02-23T02:31:49.675Z,9.82
2023-02-23T02:35:10.702Z,10.40
2023-02-23T02:38:55.886Z,9.80
2023-02-23T02:42:04.060Z,10.57
2023-02-23T02:45:14.943Z,10.02
2023-02-23T02:48:42.377Z,10.30
2023-02-23T02:52:08.886Z,9.85
2023-02-23T02:55:24.957Z,14.88
2023-02-23T02:58:27.759Z,12.45
2023-02-23T03:01:50.006Z,8.53
2023-02-23T03:05:10.859Z,8.48
2023-02-23T03:08:55.529Z,12.50
2023-02-23T03:12:27.392Z,10.40
2023-02-23T03:15:54.274Z,11.43
2023-02-23T03:19:50.205Z,12.13
2023-02-23T03:23:21.386Z,11.63
2023-02-23T03:26:58.892Z,11.43
2023-02-23T03:30:28.708Z,10.38
2023-02-23T03:33:58.900Z,10.65
2023-02-23T03:38:00.685Z,10.85
2023-02-23T03:41:23.580Z,11.27
2023-02-23T03:44:50.332Z,13.07
2023-02-23T03:48:12.953Z,11.60
2023-02-23T03:51:34.295Z,11.95
2023-02-23T03:55:00.535Z,10.35
2023-02-23T03:58:26.283Z,11.52
2023-02-23T04:01:47.334Z,10.45
2023-02-23T04:05:09.196Z,11.02
2023-02-23T04:08:33.718Z,11.60
2023-02-23T04:12:08.213Z,11.07
2023-02-23T04:18:25.785Z,10.75
2023-02-23T04:21:28.194Z,12.32
2023-02-23T04:24:30.647Z,12.63
2023-02-23T04:27:33.078Z,11.50
2023-02-23T04:30:35.712Z,11.80
2023-02-23T04:33:38.003Z,13.35
2023-02-23T04:36:40.962Z,14.40
2023-02-23T04:39:48.545Z,13.27
2023-02-23T04:42:51.367Z,14.70
2023-02-23T04:45:53.706Z,12.38
2023-02-23T04:48:56.028Z,13.10
2023-02-23T04:51:58.272Z,13.23
2023-02-23T04:55:00.631Z,20.67
2023-02-23T04:58:03.427Z,13.70
2023-02-23T05:01:10.039Z,9.50
2023-02-23T05:04:12.423Z,13.23
2023-02-23T05:07:14.736Z,14.70
2023-02-23T05:10:17.475Z,13.88
2023-02-23T05:13:20.752Z,14.47
2023-02-23T05:16:23.678Z,12.93
2023-02-23T05:19:26.033Z,14.17
2023-02-23T05:22:28.304Z,15.48
2023-02-23T05:25:30.680Z,14.65
2023-02-23T05:28:34.689Z,13.98
2023-02-23T05:31:37.593Z,18.10
2023-02-23T05:34:40.067Z,11.27
2023-02-23T05:37:42.665Z,14.85
2023-02-23T05:40:45.214Z,12.50
2023-02-23T05:43:51.342Z,13.23
2023-02-23T05:46:54.131Z,14.70
2023-02-23T05:49:56.654Z,13.85
2023-02-23T05:52:58.934Z,14.15
2023-02-23T05:56:02.663Z,15.10
2023-02-23T06:02:07.469Z,32.60
2023-02-23T06:05:10.861Z,14.55
2023-02-23T06:08:13.811Z,12.90
2023-02-23T06:11:16.386Z,12.48
2023-02-23T06:14:18.994Z,12.70
2023-02-23T06:17:21.590Z,12.40
2023-02-23T06:20:24.072Z,14.50
2023-02-23T06:23:26.653Z,14.25
2023-02-23T06:26:29.766Z,15.93
2023-02-23T06:29:32.036Z,11.05
2023-02-23T06:32:34.587Z,13.70
2023-02-23T06:35:40.097Z,14.60
2023-02-23T06:38:43.007Z,18.20
2023-02-23T06:41:45.676Z,11.13
2023-02-23T06:44:48.247Z,11.67
2023-02-23T06:47:50.774Z,10.90
2023-02-23T06:50:53.528Z,12.55
2023-02-23T06:53:56.186Z,12.98
2023-02-23T06:56:59.266Z,14.88
2023-02-23T07:00:02.121Z,13.05
2023-02-23T07:03:04.798Z,13.95
2023-02-23T07:06:07.346Z,11.27
2023-02-23T07:09:09.929Z,13.32
2023-02-23T07:12:12.350Z,10.98
2023-02-23T07:15:17.885Z,14.48
2023-02-23T07:18:20.236Z,13.82
2023-02-23T07:21:23.155Z,15.57
2023-02-23T07:24:27.580Z,8.50
2023-02-23T07:27:30.420Z,12.02
2023-02-23T07:30:32.962Z,13.20
2023-02-23T07:33:36.326Z,13.02
2023-02-23T07:36:39.476Z,10.63
2023-02-23T07:39:42.064Z,12.68
2023-02-23T07:42:44.766Z,13.30
2023-02-23T07:45:47.399Z,13.07
2023-02-23T07:48:49.863Z,13.38
2023-02-23T07:51:52.749Z,13.88
2023-02-23T07:54:58.279Z,12.20
2023-02-23T08:01:02.988Z,16.50
2023-02-23T08:04:05.753Z,16.80
2023-02-23T08:07:08.789Z,13.98
2023-02-23T08:10:11.925Z,10.50
2023-02-23T08:13:14.313Z,12.15
2023-02-23T08:16:18.677Z,17.88
2023-02-23T08:19:22.995Z,16.00
2023-02-23T08:22:25.341Z,17.00
2023-02-23T08:25:27.729Z,15.52
2023-02-23T08:28:30.725Z,17.38
2023-02-23T08:31:33.266Z,20.17
2023-02-23T08:34:43.452Z,15.50
2023-02-23T08:37:46.157Z,23.75
2023-02-23T08:40:48.642Z,13.77
2023-02-23T08:43:51.145Z,14.57
2023-02-23T08:46:55.447Z,14.23
2023-02-23T08:49:57.902Z,17.25
2023-02-23T08:53:00.314Z,14.98
2023-02-23T08:56:06.199Z,13.98
2023-02-23T08:59:09.660Z,14.30
2023-02-23T09:02:13.818Z,9.73
2023-02-23T09:05:16.672Z,13.80
2023-02-23T09:08:19.876Z,14.57
2023-02-23T09:11:23.077Z,12.80
2023-02-23T09:14:25.610Z,13.82
2023-02-23T09:17:28.104Z,14.70
2023-02-23T09:20:30.590Z,13.82
2023-02-23T09:23:34.024Z,12.43
2023-02-23T09:26:40.179Z,12.63
2023-02-23T09:29:43.657Z,15.23
2023-02-23T09:32:46.179Z,16.60
2023-02-23T09:35:48.655Z,15.65
2023-02-23T09:38:55.604Z,15.98
2023-02-23T09:42:09.786Z,16.92
2023-02-23T09:48:17.917Z,12.73
2023-02-23T09:51:21.626Z,13.40
2023-02-23T09:57:39.722Z,12.38
2023-02-23T10:00:44.980Z,13.48
2023-02-23T10:04:07.145Z,14.02
2023-02-23T10:07:34.852Z,11.88
2023-02-23T10:10:37.234Z,19.75
2023-02-23T10:14:00.763Z,12.43
2023-02-23T10:17:45.462Z,13.38
2023-02-23T10:21:20.049Z,16.10
2023-02-23T10:24:25.472Z,15.18
2023-02-23T10:27:33.553Z,19.13
2023-02-23T10:30:36.501Z,14.77
2023-02-23T10:33:42.370Z,22.67
2023-02-23T10:37:07.298Z,12.85
2023-02-23T10:40:22.216Z,13.02
2023-02-23T10:43:24.727Z,13.27
2023-02-23T10:46:33.320Z,12.25
2023-02-23T10:49:47.539Z,10.73
2023-02-23T10:52:52.261Z,12.98
2023-02-23T10:56:10.901Z,12.15
2023-02-23T10:59:20.594Z,18.33
2023-02-23T11:02:25.817Z,15.15
2023-02-23T11:05:33.134Z,12.82
2023-02-23T11:08:37.666Z,12.15
2023-02-23T11:11:40.069Z,13.25
2023-02-23T11:14:42.699Z,21.55
2023-02-23T11:17:45.119Z,13.70
2023-02-23T11:20:49.066Z,12.90
2023-02-23T11:23:54.142Z,19.95
2023-02-23T11:27:00.438Z,14.00
2023-02-23T11:30:07.048Z,13.25
2023-02-23T11:33:16.980Z,12.18
2023-02-23T11:36:25.202Z,13.40
2023-02-23T11:39:27.861Z,14.27
2023-02-23T11:42:33.512Z,13.13
2023-02-23T11:45:47.215Z,15.02
2023-02-23T11:48:57.090Z,20.20
2023-02-23T11:51:59.645Z,19.20
2023-02-23T11:55:06.622Z,23.05
2023-02-23T11:58:19.460Z,14.27
2023-02-23T12:01:25.076Z,17.42
2023-02-23T12:04:38.435Z,14.05
2023-02-23T12:07:46.803Z,12.13
2023-02-23T12:10:52.780Z,15.55
2023-02-23T12:14:02.917Z,13.35
2023-02-23T12:17:13.929Z,17.02
2023-02-23T12:20:22.930Z,14.98
2023-02-23T12:23:27.861Z,16.27
2023-02-23T12:26:31.911Z,20.20
2023-02-23T12:33:03.529Z,13.60
2023-02-23T12:36:21.424Z,14.13
2023-02-23T12:39:36.834Z,15.23
2023-02-23T12:42:42.248Z,14.00
2023-02-23T12:46:15.592Z,13.38
2023-02-23T12:49:40.207Z,14.77
2023-02-23T12:52:57.717Z,15.57
2023-02-23T12:56:21.874Z,41.20
2023-02-23T12:59:42.295Z,19.77
2023-02-23T13:02:52.948Z,14.35
2023-02-23T13:06:25.738Z,19.50
2023-02-23T13:09:46.175Z,18.45
2023-02-23T13:12:58.563Z,15.60
2023-02-23T13:16:14.781Z,18.10
2023-02-23T13:19:42.509Z,38.95
2023-02-23T13:23:11.518Z,14.05
2023-02-23T13:26:24.871Z,20.73
2023-02-23T13:29:44.183Z,16.27
2023-02-23T13:32:46.908Z,23.60
2023-02-23T13:35:49.293Z,17.00
2023-02-23T13:39:24.310Z,25.88
2023-02-23T13:42:42.892Z,18.77
2023-02-23T13:45:54.331Z,14.65
2023-02-23T13:49:17.199Z,27.95
2023-02-23T13:52:41.136Z,15.95
2023-02-23T13:55:51.368Z,31.83
2023-02-23T13:59:01.433Z,15.73
2023-02-23T14:03:26.421Z,21.05
2023-02-23T14:06:31.167Z,15.27
2023-02-23T14:09:37.338Z,14.93
2023-02-23T14:12:44.423Z,14.13
2023-02-23T14:15:50.069Z,21.75
2023-02-23T14:18:57.989Z,24.25
2023-02-23T14:22:05.317Z,23.85
2023-02-23T14:25:35.482Z,27.35
2023-02-23T14:28:43.500Z,19.67
2023-02-23T14:32:00.931Z,30.73
2023-02-23T14:35:03.382Z,18.67
2023-02-23T14:38:08.485Z,17.75
2023-02-23T14:41:12.206Z,38.75
2023-02-23T14:44:29.884Z,37.75
2023-02-23T14:47:42.526Z,17.98
2023-02-23T14:50:44.938Z,19.45
2023-02-23T14:53:47.379Z,20.48
2023-02-23T14:56:52.635Z,20.75
2023-02-23T15:00:00.536Z,19.90
2023-02-23T15:03:13.185Z,19.65
2023-02-23T15:06:15.467Z,21.67
2023-02-23T15:09:23.459Z,23.40
2023-02-23T15:12:37.734Z,27.85
2023-02-23T15:15:46.565Z,25.83
2023-02-23T15:18:51.373Z,31.58
2023-02-23T15:21:55.217Z,20.00
2023-02-23T15:25:00.452Z,25.23
2023-02-23T15:28:21.598Z,22.88
2023-02-23T15:31:30.821Z,20.83
2023-02-23T15:34:33.484Z,21.52
2023-02-23T15:37:41.690Z,22.52
2023-02-23T15:40:44.328Z,21.90
2023-02-23T15:43:46.788Z,22.45
2023-02-23T15:46:58.062Z,21.65
2023-02-23T15:50:36.590Z,23.02
2023-02-23T15:53:40.651Z,24.67
2023-02-23T15:56:47.012Z,15.70
2023-02-23T15:59:50.310Z,27.88
2023-02-23T16:02:53.069Z,23.45
2023-02-23T16:06:07.290Z,20.95
2023-02-23T16:09:24.190Z,42.05
2023-02-23T16:12:33.009Z,31.35
2023-02-23T16:15:36.644Z,29.95
2023-02-23T16:18:40.575Z,30.33
2023-02-23T16:21:43.465Z,24.27
2023-02-23T16:24:46.081Z,18.85
2023-02-23T16:27:56.222Z,20.45
2023-02-23T16:30:58.692Z,30.52
2023-02-23T16:34:01.788Z,23.23
2023-02-23T16:37:15.780Z,23.97
2023-02-23T16:40:18.733Z,22.88
2023-02-23T16:43:21.792Z,21.27
2023-02-23T16:46:26.239Z,22.38
2023-02-23T16:52:33.247Z,20.33
2023-02-23T16:55:39.944Z,22.15
2023-02-23T16:58:46.878Z,26.13
2023-02-23T17:01:50.124Z,22.00
2023-02-23T17:04:58.951Z,15.60
2023-02-23T17:08:01.477Z,24.77
2023-02-23T17:11:04.888Z,18.95
2023-02-23T17:14:07.570Z,21.73
2023-02-23T17:17:15.721Z,24.58
2023-02-23T17:20:21.609Z,20.35
2023-02-23T17:23:28.624Z,26.08
2023-02-23T17:26:30.937Z,23.63
2023-02-23T17:29:33.374Z,20.10
2023-02-23T17:32:36.458Z,25.40
2023-02-23T17:35:39.116Z,23.45
2023-02-23T17:38:44.933Z,19.42
2023-02-23T17:41:47.700Z,19.20
2023-02-23T17:44:50.119Z,20.67
2023-02-23T17:47:52.937Z,19.65
2023-02-23T17:51:03.640Z,19.55
2023-02-23T17:54:06.467Z,20.48
2023-02-23T17:57:08.814Z,19.77
2023-02-23T18:00:13.022Z,38.45
2023-02-23T18:03:16.967Z,25.58
2023-02-23T18:06:20.104Z,17.38
2023-02-23T18:09:22.513Z,18.80
2023-02-23T18:12:24.902Z,24.35
2023-02-23T18:15:27.343Z,26.60
2023-02-23T18:18:29.884Z,32.22
2023-02-23T18:21:34.727Z,34.88
2023-02-23T18:24:38.375Z,24.17
2023-02-23T18:27:40.695Z,38.53
2023-02-23T18:30:43.284Z,29.15
2023-02-23T18:33:49.714Z,27.20
2023-02-23T18:36:52.118Z,28.05
2023-02-23T18:39:57.086Z,25.85
2023-02-23T18:42:59.782Z,26.02
2023-02-23T18:46:06.578Z,23.95
2023-02-23T18:49:13.904Z,26.55
2023-02-23T18:52:16.527Z,24.50
2023-02-23T18:55:19.986Z,25.67
2023-02-23T18:58:22.493Z,20.67
2023-02-23T19:01:27.362Z,28.17
2023-02-23T19:04:29.841Z,29.45
2023-02-23T19:07:32.715Z,28.10
2023-02-23T19:10:36.498Z,29.38
2023-02-23T19:13:38.891Z,33.75
2023-02-23T19:16:41.535Z,31.88
2023-02-23T19:19:43.884Z,33.38
2023-02-23T19:22:46.640Z,37.60
2023-02-23T19:25:50.311Z,33.28
2023-02-23T19:28:53.158Z,31.10
2023-02-23T19:31:55.814Z,25.98
2023-02-23T19:34:58.252Z,25.38
2023-02-23T19:38:02.599Z,29.38
2023-02-23T19:41:08.172Z,25.50
2023-02-23T19:44:10.926Z,25.95
2023-02-23T19:47:13.366Z,24.70
2023-02-23T19:50:19.139Z,25.25
2023-02-23T19:53:21.697Z,25.70
2023-02-23T19:56:28.338Z,24.58
2023-02-23T19:59:30.880Z,25.77
2023-02-23T20:02:33.609Z,24.10
2023-02-23T20:05:42.828Z,31.98
2023-02-23T20:08:47.179Z,32.53
2023-02-23T20:11:49.490Z,96.68
2023-02-23T20:14:51.942Z,225.93
2023-02-23T20:17:54.267Z,78.70
2023-02-23T20:20:56.732Z,38.33
2023-02-23T20:24:01.000Z,44.95
2023-02-23T20:27:03.437Z,29.50
2023-02-23T20:30:06.927Z,34.97
2023-02-23T20:33:11.920Z,22.95
2023-02-23T20:36:14.291Z,37.08
2023-02-23T20:39:17.018Z,35.50
2023-02-23T20:42:19.624Z,34.78
2023-02-23T20:45:24.044Z,64.82
2023-02-23T20:48:27.464Z,43.03
2023-02-23T20:51:29.944Z,31.30
2023-02-23T20:54:33.422Z,32.50
2023-02-23T20:57:36.320Z,21.73
2023-02-23T21:00:39.065Z,30.13
2023-02-23T21:03:41.506Z,27.88
2023-02-23T21:06:44.472Z,31.98
2023-02-23T21:09:46.992Z,31.48
2023-02-23T21:12:49.646Z,34.90
2023-02-23T21:16:01.055Z,33.38
2023-02-23T21:19:04.429Z,34.40
2023-02-23T21:22:07.221Z,29.20
2023-02-23T21:25:10.993Z,35.25
2023-02-23T21:28:14.958Z,36.00
2023-02-23T21:31:17.771Z,44.22
2023-02-23T21:34:20.950Z,34.13
2023-02-23T21:37:23.451Z,27.23
2023-02-23T21:40:25.932Z,35.55
2023-02-23T21:43:28.279Z,41.75
2023-02-23T21:46:30.582Z,41.25
2023-02-23T21:49:32.918Z,37.78
2023-02-23T21:52:35.304Z,37.55
2023-02-23T21:55:41.741Z,39.28
2023-02-23T21:58:49.292Z,39.30
2023-02-23T22:01:51.882Z,37.40
2023-02-23T22:04:54.581Z,38.00
2023-02-23T22:07:57.088Z,40.38
2023-02-23T22:10:59.429Z,41.15
2023-02-23T22:14:01.836Z,38.53
2023-02-23T22:17:06.515Z,35.42
2023-02-23T22:20:09.761Z,38.72
2023-02-23T22:23:12.249Z,38.17
2023-02-23T22:26:15.316Z,36.90
2023-02-23T22:29:17.694Z,37.45
2023-02-23T22:32:20.428Z,38.33
2023-02-23T22:35:22.833Z,36.08
2023-02-23T22:38:25.263Z,38.10
2023-02-23T22:41:29.784Z,39.38
2023-02-23T22:44:32.143Z,38.80
2023-02-23T22:47:35.463Z,37.28
2023-02-23T22:50:38.324Z,38.20
2023-02-23T22:53:40.913Z,38.83
2023-02-23T22:56:44.184Z,38.50
2023-02-23T22:59:54.832Z,38.08
2023-02-23T23:02:57.186Z,38.67
2023-02-23T23:06:03.750Z,38.75
2023-02-23T23:09:07.736Z,41.75
2023-02-23T23:12:12.170Z,38.40
2023-02-23T23:15:19.473Z,38.47
2023-02-23T23:18:24.677Z,39.65
2023-02-23T23:21:28.257Z,40.92
2023-02-23T23:24:30.732Z,31.63
2023-02-23T23:27:37.326Z,39.85
2023-02-23T23:30:45.788Z,41.85
2023-02-23T23:33:50.695Z,41.92
2023-02-23T23:36:53.538Z,41.60
2023-02-23T23:40:02.127Z,41.38
2023-02-23T23:43:07.638Z,41.28
2023-02-23T23:46:10.794Z,42.85
2023-02-23T23:49:16.156Z,42.07
2023-02-23T23:52:18.518Z,41.55
2023-02-23T23:55:20.859Z,44.42
2023-02-23T23:58:26.848Z,42.28
